Charter Quote
Worldwide +1-877-727-2538 Call
Select Language Lang
SAFETY RELIABILITY EXPERIENCE

Private Jet Charter Services - Altay Airport (ZWAT)

Paramount Business Jets offers private jet charter flights and luxury airliner charters to and from Altay Airport.

AIRPORT INFORMATION
ICAOZWAT
LOCATIONAltay, China
FACILITY TYPEAIRPORT

At Paramount Business Jets you can hire chartered private jets to and from Altay Airport with as little as 4 hours of notice. All flights booked via Paramount Business Jets are operated by certified direct air carriers that meet and exceed the FAA part 135 and 121 protocol or a foreign equivalent safety authority. Furthermore, Paramount Business Jets subscribes to ARGUS for their third party safety checks of operators, aircraft, and crews prior each and every flight to and from Altay Airport and worldwide.

  • Quote a trip using Altay Airport or call us 24/7 - 365 days a year at +1-877-727-2538.
Questions? Call +1-877-727-2538

METAR Weather Data at Altay Airport, ZWAT

STATIONZWAT
OBSERVEDSun Mar 1, 11:00 UTC
NOWMon Jul 22, 09:37 UTC
AGE38494:37 hr ago
WINDcalm
VISIBILITY11 miles
METARZWAT 011100Z 00000MPS 7000 NSC M10/M14 Q1028 NOSIG

Call us on +1-877-727-2538 (24 Hours) to Hire a Private Jet or Get a Quick Quote.

Find Airports Near any Location

Processing
...